createdAt,value
2018-06-08T00:01:21.871Z,20.18
2018-06-08T00:03:50.796Z,20.16
2018-06-08T00:06:19.726Z,20.22
2018-06-08T00:08:48.619Z,20.24
2018-06-08T00:11:17.851Z,20.17
2018-06-08T00:13:46.796Z,20.17
2018-06-08T00:16:15.727Z,20.22
2018-06-08T00:18:44.810Z,20.14
2018-06-08T00:21:13.740Z,20.06
2018-06-08T00:23:42.735Z,20.06
2018-06-08T00:26:11.640Z,20.15
2018-06-08T00:28:40.588Z,20.10
2018-06-08T00:31:09.516Z,20.11
2018-06-08T00:33:38.455Z,20.10
2018-06-08T00:36:07.355Z,20.12
2018-06-08T00:38:36.290Z,20.12
2018-06-08T00:41:05.208Z,20.18
2018-06-08T00:43:34.126Z,20.23
2018-06-08T00:46:03.036Z,20.14
2018-06-08T00:48:31.984Z,20.14
2018-06-08T00:51:00.883Z,20.14
2018-06-08T00:53:29.783Z,20.10
2018-06-08T00:55:58.703Z,20.01
2018-06-08T00:58:27.644Z,20.05
2018-06-08T01:00:56.604Z,20.09
2018-06-08T01:03:25.500Z,20.06
2018-06-08T01:05:54.415Z,20.15
2018-06-08T01:08:23.362Z,20.11
2018-06-08T01:10:52.661Z,20.12
2018-06-08T01:13:21.576Z,20.03
2018-06-08T01:15:50.494Z,20.05
2018-06-08T01:18:19.491Z,20.06
2018-06-08T01:20:48.709Z,20.05
2018-06-08T01:23:17.623Z,20.12
2018-06-08T01:25:46.528Z,20.09
2018-06-08T01:28:15.462Z,20.05
2018-06-08T01:30:44.719Z,20.14
2018-06-08T01:33:13.690Z,20.19
2018-06-08T01:35:42.607Z,20.22
2018-06-08T01:38:11.542Z,20.18
2018-06-08T01:40:40.453Z,20.22
2018-06-08T01:43:09.459Z,20.21
2018-06-08T01:45:38.382Z,20.18
2018-06-08T01:48:07.304Z,20.27
2018-06-08T01:50:36.237Z,20.25
2018-06-08T01:53:05.265Z,20.27
2018-06-08T01:55:34.216Z,20.33
2018-06-08T01:58:03.146Z,20.31
2018-06-08T02:00:32.110Z,20.32
2018-06-08T02:03:01.055Z,20.32
2018-06-08T02:05:29.954Z,20.31
2018-06-08T02:07:58.851Z,20.35
2018-06-08T02:10:27.800Z,20.36
2018-06-08T02:12:56.748Z,20.27
2018-06-08T02:15:25.676Z,20.25
2018-06-08T02:17:54.620Z,20.29
2018-06-08T02:20:23.568Z,20.30
2018-06-08T02:22:52.584Z,20.30
2018-06-08T02:25:21.493Z,20.37
2018-06-08T02:27:50.413Z,20.37
2018-06-08T02:30:19.328Z,20.33
2018-06-08T02:32:48.269Z,20.29
2018-06-08T02:35:17.200Z,20.30
2018-06-08T02:37:46.129Z,20.32
2018-06-08T02:40:15.046Z,20.34
2018-06-08T02:42:43.987Z,20.38
2018-06-08T02:45:12.904Z,20.40
2018-06-08T02:47:41.866Z,20.45
2018-06-08T02:50:10.763Z,20.44
2018-06-08T02:52:39.703Z,20.43
2018-06-08T02:55:08.609Z,20.48
2018-06-08T02:57:37.819Z,20.38
2018-06-08T03:00:06.796Z,20.21
2018-06-08T03:02:36.018Z,20.25
2018-06-08T03:05:04.998Z,20.29
2018-06-08T03:07:33.931Z,20.32
2018-06-08T03:10:02.886Z,20.34
2018-06-08T03:12:31.830Z,20.34
2018-06-08T03:15:00.746Z,20.31
2018-06-08T03:17:29.657Z,20.34
2018-06-08T03:19:58.596Z,20.34
2018-06-08T03:22:27.546Z,20.19
2018-06-08T03:24:56.502Z,20.08
2018-06-08T03:27:25.661Z,20.12
2018-06-08T03:29:54.596Z,20.14
2018-06-08T03:32:23.526Z,20.23
2018-06-08T03:34:52.435Z,20.24
2018-06-08T03:37:21.393Z,20.22
2018-06-08T03:39:50.317Z,20.27
2018-06-08T03:42:19.229Z,20.17
2018-06-08T03:44:48.176Z,20.24
2018-06-08T03:47:17.103Z,20.15
2018-06-08T03:49:46.048Z,20.22
2018-06-08T03:52:14.983Z,20.23
2018-06-08T03:54:43.914Z,20.16
2018-06-08T03:57:12.819Z,20.20
2018-06-08T03:59:41.825Z,20.22
2018-06-08T04:02:10.756Z,20.20
2018-06-08T04:04:39.686Z,20.25
2018-06-08T04:07:08.606Z,20.27
2018-06-08T04:09:37.563Z,20.25
2018-06-08T04:12:06.481Z,20.25
2018-06-08T04:14:36.270Z,20.23
2018-06-08T04:17:05.202Z,20.23
2018-06-08T04:19:34.146Z,20.21
2018-06-08T04:22:03.086Z,20.17
2018-06-08T04:24:31.988Z,20.18
2018-06-08T04:27:00.913Z,20.19
2018-06-08T04:29:29.830Z,20.22
2018-06-08T04:32:02.565Z,20.23
2018-06-08T04:34:31.486Z,20.19
2018-06-08T04:37:00.392Z,20.16
2018-06-08T04:39:29.314Z,20.15
2018-06-08T04:41:58.215Z,20.19
2018-06-08T04:44:27.154Z,20.14
2018-06-08T04:46:56.100Z,20.17
2018-06-08T04:49:25.025Z,20.19
2018-06-08T04:51:53.943Z,20.16
2018-06-08T04:54:22.892Z,20.21
2018-06-08T04:56:52.885Z,20.26
2018-06-08T04:59:22.437Z,20.27
2018-06-08T05:01:51.331Z,20.30
2018-06-08T05:04:20.269Z,20.24
2018-06-08T05:06:49.193Z,20.31
2018-06-08T05:09:18.231Z,20.33
2018-06-08T05:11:47.175Z,20.37
2018-06-08T05:14:16.058Z,20.30
2018-06-08T05:16:45.036Z,20.30
2018-06-08T05:19:14.131Z,20.36
2018-06-08T05:21:43.082Z,20.33
2018-06-08T05:24:12.111Z,20.39
2018-06-08T05:26:41.017Z,20.43
2018-06-08T05:29:09.984Z,20.40
2018-06-08T05:31:38.929Z,20.43
2018-06-08T05:34:11.062Z,20.44
2018-06-08T05:36:39.993Z,20.50
2018-06-08T05:39:09.535Z,20.46
2018-06-08T05:41:38.439Z,20.41
2018-06-08T05:44:07.357Z,20.38
2018-06-08T05:46:36.509Z,20.43
2018-06-08T05:49:05.426Z,20.47
2018-06-08T05:51:34.331Z,20.50
2018-06-08T05:54:03.276Z,20.54
2018-06-08T05:56:32.198Z,20.50
2018-06-08T05:59:01.110Z,20.44
2018-06-08T06:01:30.008Z,20.45
2018-06-08T06:03:58.936Z,20.53
2018-06-08T06:06:27.890Z,20.56
2018-06-08T06:08:56.931Z,20.63
2018-06-08T06:11:25.839Z,20.63
2018-06-08T06:13:54.762Z,20.56
2018-06-08T06:16:23.674Z,20.57
2018-06-08T06:18:52.617Z,20.45
2018-06-08T06:21:21.542Z,20.47
2018-06-08T06:23:50.476Z,20.53
2018-06-08T06:26:19.394Z,20.55
2018-06-08T06:28:48.334Z,20.50
2018-06-08T06:31:17.254Z,20.51
2018-06-08T06:33:46.184Z,20.53
2018-06-08T06:36:15.109Z,20.50
2018-06-08T06:38:44.041Z,20.52
2018-06-08T06:41:12.929Z,20.56
2018-06-08T06:43:41.859Z,20.60
2018-06-08T06:46:10.825Z,20.57
2018-06-08T06:48:39.751Z,20.58
2018-06-08T06:51:08.670Z,20.63
2018-06-08T06:53:37.590Z,20.68
2018-06-08T06:56:06.534Z,20.60
2018-06-08T06:58:35.448Z,20.65
2018-06-08T07:01:04.420Z,20.68
2018-06-08T07:03:33.331Z,20.78
2018-06-08T07:06:02.273Z,20.85
2018-06-08T07:08:31.215Z,20.89
2018-06-08T07:11:00.143Z,20.98
2018-06-08T07:13:29.068Z,20.92
2018-06-08T07:15:57.980Z,20.99
2018-06-08T07:18:26.919Z,21.00
2018-06-08T07:20:55.850Z,21.10
2018-06-08T07:23:24.787Z,21.06
2018-06-08T07:25:53.766Z,21.10
2018-06-08T07:28:22.700Z,21.15
2018-06-08T07:30:51.646Z,21.18
2018-06-08T07:33:20.589Z,21.22
2018-06-08T07:35:49.492Z,21.16
2018-06-08T07:38:18.426Z,21.20
2018-06-08T07:40:47.343Z,21.22
2018-06-08T07:43:16.274Z,21.19
2018-06-08T07:45:45.206Z,21.20
2018-06-08T07:48:14.157Z,21.24
2018-06-08T07:50:43.104Z,21.24
2018-06-08T07:53:12.024Z,21.29
2018-06-08T07:55:40.964Z,21.34
2018-06-08T07:58:13.526Z,21.44
2018-06-08T08:00:42.788Z,21.47
2018-06-08T08:03:11.729Z,21.44
2018-06-08T08:05:40.607Z,21.48
2018-06-08T08:08:09.543Z,21.53
2018-06-08T08:10:39.647Z,21.54
2018-06-08T08:13:08.604Z,21.59
2018-06-08T08:15:37.515Z,21.52
2018-06-08T08:18:06.425Z,21.53
2018-06-08T08:20:35.345Z,21.49
2018-06-08T08:23:04.272Z,21.44
2018-06-08T08:25:33.210Z,21.42
2018-06-08T08:28:02.135Z,21.47
2018-06-08T08:30:31.050Z,21.48
2018-06-08T08:32:59.997Z,21.40
2018-06-08T08:35:28.925Z,21.40
2018-06-08T08:37:57.835Z,21.45
2018-06-08T08:40:26.764Z,21.38
2018-06-08T08:42:55.678Z,21.32
2018-06-08T08:45:24.633Z,21.37
2018-06-08T08:47:53.569Z,21.52
2018-06-08T08:50:22.506Z,21.54
2018-06-08T08:52:51.441Z,21.54
2018-06-08T08:55:20.350Z,21.60
2018-06-08T08:57:49.296Z,21.56
2018-06-08T09:00:18.215Z,21.60
2018-06-08T09:02:47.208Z,21.66
2018-06-08T09:05:16.128Z,21.71
2018-06-08T09:07:45.062Z,21.68
2018-06-08T09:10:14.002Z,21.66
2018-06-08T09:12:42.910Z,21.68
2018-06-08T09:15:11.849Z,21.73
2018-06-08T09:17:40.770Z,21.77
2018-06-08T09:20:09.762Z,21.79
2018-06-08T09:22:38.656Z,21.86
2018-06-08T09:25:07.559Z,21.87
2018-06-08T09:27:36.865Z,21.96
2018-06-08T09:30:05.833Z,22.00
2018-06-08T09:32:34.749Z,22.01
2018-06-08T09:35:03.708Z,22.05
2018-06-08T09:37:32.642Z,22.04
2018-06-08T09:40:01.611Z,22.06
2018-06-08T09:42:30.467Z,22.08
2018-06-08T09:44:59.401Z,21.95
2018-06-08T09:47:28.328Z,21.92
2018-06-08T09:49:57.241Z,21.99
2018-06-08T09:52:26.168Z,21.99
2018-06-08T09:54:55.078Z,21.90
2018-06-08T09:57:24.262Z,21.83
2018-06-08T09:59:53.157Z,21.91
2018-06-08T10:02:22.063Z,21.81
2018-06-08T10:04:50.989Z,21.77
2018-06-08T10:07:19.913Z,21.81
2018-06-08T10:09:48.837Z,21.80
2018-06-08T10:12:17.766Z,21.74
2018-06-08T10:14:50.239Z,21.62
2018-06-08T10:17:19.154Z,21.67
2018-06-08T10:19:48.248Z,21.70
2018-06-08T10:22:17.161Z,21.65
2018-06-08T10:24:46.074Z,21.61
2018-06-08T10:27:14.986Z,21.49
2018-06-08T10:29:43.917Z,21.34
2018-06-08T10:32:12.842Z,21.25
2018-06-08T10:34:41.768Z,21.30
2018-06-08T10:37:10.702Z,21.35
2018-06-08T10:39:39.641Z,21.35
2018-06-08T10:42:08.582Z,21.35
2018-06-08T10:44:38.028Z,21.30
2018-06-08T10:47:06.962Z,21.29
2018-06-08T10:49:36.190Z,21.32
2018-06-08T10:52:05.213Z,21.35
2018-06-08T10:54:34.141Z,21.28
2018-06-08T10:57:03.089Z,21.30
2018-06-08T10:59:32.027Z,21.26
2018-06-08T11:02:00.931Z,21.17
2018-06-08T11:04:29.860Z,21.19
2018-06-08T11:06:58.803Z,21.26
2018-06-08T11:09:27.739Z,21.20
2018-06-08T11:11:56.665Z,21.21
2018-06-08T11:14:25.563Z,21.22
2018-06-08T11:16:54.522Z,21.25
2018-06-08T11:19:23.453Z,21.21
2018-06-08T11:21:52.399Z,21.20
2018-06-08T11:24:21.308Z,21.15
2018-06-08T11:26:50.250Z,21.21
2018-06-08T11:29:19.204Z,21.22
2018-06-08T11:31:48.322Z,21.20
2018-06-08T11:34:17.268Z,21.19
2018-06-08T11:36:46.174Z,21.19
2018-06-08T11:39:15.354Z,21.07
2018-06-08T11:41:44.290Z,21.05
2018-06-08T11:44:16.953Z,21.04
2018-06-08T11:46:46.267Z,21.08
2018-06-08T11:49:15.364Z,21.06
2018-06-08T11:51:44.670Z,21.02
2018-06-08T11:54:13.638Z,21.05
2018-06-08T11:56:42.626Z,21.12
2018-06-08T11:59:11.589Z,21.10
2018-06-08T12:01:40.546Z,21.05
2018-06-08T12:04:09.477Z,21.12
2018-06-08T12:06:41.802Z,21.13
2018-06-08T12:09:10.987Z,21.15
2018-06-08T12:11:39.882Z,21.09
2018-06-08T12:14:08.838Z,21.02
2018-06-08T12:16:37.774Z,20.99
2018-06-08T12:19:06.811Z,21.04
2018-06-08T12:21:35.821Z,21.04
2018-06-08T12:24:04.844Z,21.05
2018-06-08T12:26:37.034Z,21.11
2018-06-08T12:29:05.958Z,21.16
2018-06-08T12:31:34.881Z,21.20
2018-06-08T12:34:03.799Z,21.16
2018-06-08T12:36:32.721Z,21.26
2018-06-08T12:39:02.787Z,21.28
2018-06-08T12:41:31.734Z,21.23
2018-06-08T12:44:00.651Z,21.27
2018-06-08T12:46:32.591Z,21.36
2018-06-08T12:49:01.675Z,21.42
2018-06-08T12:51:30.647Z,21.46
2018-06-08T12:53:59.596Z,21.34
2018-06-08T12:56:28.507Z,21.35
2018-06-08T12:58:57.438Z,21.35
2018-06-08T13:01:26.361Z,21.44
2018-06-08T13:03:55.297Z,21.44
2018-06-08T13:06:24.213Z,21.50
2018-06-08T13:08:53.134Z,21.47
2018-06-08T13:11:25.694Z,21.55
2018-06-08T13:13:54.701Z,21.63
2018-06-08T13:16:23.828Z,21.61
2018-06-08T13:18:52.751Z,21.62
2018-06-08T13:21:25.462Z,21.58
2018-06-08T13:23:54.469Z,21.65
2018-06-08T13:26:24.391Z,21.86
2018-06-08T13:28:53.341Z,21.81
2018-06-08T13:31:22.297Z,21.70
2018-06-08T13:33:54.512Z,21.71
2018-06-08T13:36:23.420Z,21.82
2018-06-08T13:38:52.342Z,21.70
2018-06-08T13:41:21.304Z,21.63
2018-06-08T13:43:50.228Z,21.77
2018-06-08T13:46:30.544Z,21.92
2018-06-08T13:48:59.440Z,22.09
2018-06-08T13:51:28.356Z,22.24
2018-06-08T13:53:57.275Z,22.26
2018-06-08T13:56:30.048Z,22.20
2018-06-08T13:58:58.972Z,22.18
2018-06-08T14:01:27.923Z,22.11
2018-06-08T14:03:56.861Z,22.14
2018-06-08T14:06:25.767Z,22.29
2018-06-08T14:08:54.693Z,22.23
2018-06-08T14:11:23.639Z,22.17
2018-06-08T14:13:52.553Z,22.19
2018-06-08T14:16:21.487Z,22.31
2018-06-08T14:18:50.441Z,22.45
2018-06-08T14:21:19.350Z,22.63
2018-06-08T14:23:48.291Z,22.65
2018-06-08T14:26:17.228Z,22.63
2018-06-08T14:28:46.149Z,22.59
2018-06-08T14:31:15.063Z,22.72
2018-06-08T14:33:43.980Z,22.67
2018-06-08T14:36:12.910Z,22.59
2018-06-08T14:38:45.243Z,22.58
2018-06-08T14:41:14.190Z,22.60
2018-06-08T14:43:43.108Z,22.56
2018-06-08T14:46:12.027Z,22.59
2018-06-08T14:48:40.997Z,22.50
2018-06-08T14:51:09.892Z,22.47
2018-06-08T14:53:38.961Z,22.41
2018-06-08T14:56:07.840Z,22.46
2018-06-08T14:58:36.785Z,22.54
2018-06-08T15:01:07.745Z,22.63
2018-06-08T15:03:36.686Z,22.67
2018-06-08T15:06:05.659Z,22.73
2018-06-08T15:08:34.573Z,22.72
2018-06-08T15:11:03.553Z,22.45
2018-06-08T15:13:32.442Z,22.46
2018-06-08T15:16:03.370Z,22.42
2018-06-08T15:18:32.293Z,22.39
2018-06-08T15:21:01.207Z,22.28
2018-06-08T15:23:30.174Z,22.33
2018-06-08T15:25:59.121Z,22.28
2018-06-08T15:28:28.071Z,22.35
2018-06-08T15:30:56.995Z,22.43
2018-06-08T15:33:25.961Z,22.47
2018-06-08T15:35:54.878Z,22.47
2018-06-08T15:38:24.020Z,22.52
2018-06-08T15:40:52.931Z,22.62
2018-06-08T15:43:21.878Z,22.72
2018-06-08T15:45:50.810Z,22.77
2018-06-08T15:48:19.759Z,22.73
2018-06-08T15:50:49.182Z,22.80
2018-06-08T15:53:18.083Z,22.86
2018-06-08T15:55:47.074Z,22.85
2018-06-08T15:58:16.189Z,22.86
2018-06-08T16:00:45.105Z,22.82
2018-06-08T16:03:14.069Z,22.87
2018-06-08T16:05:42.987Z,22.88
2018-06-08T16:08:11.925Z,22.95
2018-06-08T16:10:40.848Z,22.96
2018-06-08T16:13:09.783Z,22.96
2018-06-08T16:15:38.695Z,22.87
2018-06-08T16:18:07.649Z,22.83
2018-06-08T16:20:36.574Z,22.93
2018-06-08T16:23:05.749Z,22.92
2018-06-08T16:25:34.692Z,22.84
2018-06-08T16:28:03.645Z,22.79
2018-06-08T16:30:32.582Z,22.77
2018-06-08T16:33:01.589Z,22.79
2018-06-08T16:35:30.518Z,22.80
2018-06-08T16:37:59.450Z,22.78
2018-06-08T16:40:28.375Z,22.76
2018-06-08T16:42:57.309Z,22.78
2018-06-08T16:45:26.240Z,22.81
2018-06-08T16:47:55.223Z,22.94
2018-06-08T16:50:24.136Z,22.92
2018-06-08T16:52:53.074Z,22.93
2018-06-08T16:55:21.987Z,22.94
2018-06-08T16:57:50.954Z,22.92
2018-06-08T17:00:19.896Z,22.93
2018-06-08T17:02:48.838Z,22.93
2018-06-08T17:05:17.749Z,22.90
2018-06-08T17:07:46.695Z,22.88
2018-06-08T17:10:15.621Z,22.82
2018-06-08T17:12:48.203Z,22.82
2018-06-08T17:15:17.251Z,22.80
2018-06-08T17:17:46.164Z,22.81
2018-06-08T17:20:15.079Z,22.80
2018-06-08T17:22:44.006Z,22.78
2018-06-08T17:25:12.976Z,22.76
2018-06-08T17:27:41.882Z,22.73
2018-06-08T17:30:10.792Z,22.66
2018-06-08T17:32:39.717Z,22.66
2018-06-08T17:35:08.752Z,22.67
2018-06-08T17:37:37.633Z,22.71
2018-06-08T17:40:06.871Z,22.66
2018-06-08T17:42:35.798Z,22.61
2018-06-08T17:45:04.990Z,22.64
2018-06-08T17:47:33.917Z,22.62
2018-06-08T17:50:06.187Z,22.60
2018-06-08T17:52:35.140Z,22.54
2018-06-08T17:55:04.071Z,22.57
2018-06-08T17:57:33.066Z,22.53
2018-06-08T18:00:02.002Z,22.49
2018-06-08T18:02:30.978Z,22.51
2018-06-08T18:05:00.177Z,22.51
2018-06-08T18:07:29.115Z,22.49
2018-06-08T18:09:58.061Z,22.50
2018-06-08T18:12:27.287Z,22.53
2018-06-08T18:14:56.217Z,22.51
2018-06-08T18:17:25.131Z,22.49
2018-06-08T18:19:54.081Z,22.48
2018-06-08T18:22:23.006Z,22.46
2018-06-08T18:24:51.938Z,22.45
2018-06-08T18:27:20.873Z,22.46
2018-06-08T18:29:49.790Z,22.44
2018-06-08T18:32:18.740Z,22.46
2018-06-08T18:34:47.653Z,22.41
2018-06-08T18:37:19.932Z,22.37
2018-06-08T18:39:48.860Z,22.39
2018-06-08T18:42:17.779Z,22.40
2018-06-08T18:44:46.754Z,22.39
2018-06-08T18:47:15.670Z,22.36
2018-06-08T18:49:44.624Z,22.32
2018-06-08T18:52:13.636Z,22.31
2018-06-08T18:54:42.572Z,22.29
2018-06-08T18:57:11.518Z,22.29
2018-06-08T18:59:41.415Z,22.29
2018-06-08T19:02:10.351Z,22.28
2018-06-08T19:04:39.267Z,22.25
2018-06-08T19:07:08.188Z,22.24
2018-06-08T19:09:37.128Z,22.19
2018-06-08T19:12:06.061Z,22.19
2018-06-08T19:14:34.972Z,22.17
2018-06-08T19:17:03.891Z,22.14
2018-06-08T19:19:32.828Z,22.12
2018-06-08T19:22:01.762Z,22.15
2018-06-08T19:24:30.878Z,22.15
2018-06-08T19:26:59.794Z,22.14
2018-06-08T19:29:28.754Z,22.15
2018-06-08T19:31:57.689Z,22.08
2018-06-08T19:34:26.610Z,22.11
2018-06-08T19:36:55.543Z,22.09
2018-06-08T19:39:25.038Z,22.10
2018-06-08T19:41:53.950Z,22.10
2018-06-08T19:44:22.919Z,22.07
2018-06-08T19:46:51.827Z,22.05
2018-06-08T19:49:21.164Z,21.99
2018-06-08T19:51:50.090Z,21.97
2018-06-08T19:54:19.012Z,21.94
2018-06-08T19:56:47.955Z,22.02
2018-06-08T19:59:17.003Z,21.98
2018-06-08T20:01:45.930Z,21.89
2018-06-08T20:04:14.940Z,21.86
2018-06-08T20:06:43.865Z,21.80
2018-06-08T20:09:12.771Z,21.84
2018-06-08T20:11:43.712Z,21.82
2018-06-08T20:14:14.645Z,21.81
2018-06-08T20:16:43.547Z,21.80
2018-06-08T20:19:12.452Z,21.76
2018-06-08T20:21:41.377Z,21.74
2018-06-08T20:24:10.320Z,21.71
2018-06-08T20:26:39.225Z,21.66
2018-06-08T20:29:08.197Z,21.67
2018-06-08T20:31:37.089Z,21.71
2018-06-08T20:34:06.090Z,21.75
2018-06-08T20:36:34.980Z,21.72
2018-06-08T20:39:05.962Z,21.66
2018-06-08T20:41:34.916Z,21.63
2018-06-08T20:44:06.964Z,21.65
2018-06-08T20:46:35.895Z,21.62
2018-06-08T20:49:04.849Z,21.58
2018-06-08T20:51:33.755Z,21.61
2018-06-08T20:54:06.878Z,21.60
2018-06-08T20:56:35.795Z,21.60
2018-06-08T20:59:04.701Z,21.60
2018-06-08T21:01:33.632Z,21.65
2018-06-08T21:04:02.577Z,21.65
2018-06-08T21:06:31.502Z,21.67
2018-06-08T21:09:04.078Z,21.62
2018-06-08T21:11:33.090Z,21.54
2018-06-08T21:14:02.195Z,21.60
2018-06-08T21:16:31.461Z,21.64
2018-06-08T21:19:00.500Z,21.65
2018-06-08T21:21:29.809Z,21.61
2018-06-08T21:23:58.735Z,21.58
2018-06-08T21:26:28.017Z,21.47
2018-06-08T21:28:56.954Z,21.50
2018-06-08T21:31:25.942Z,21.55
2018-06-08T21:33:54.894Z,21.54
2018-06-08T21:36:24.069Z,21.57
2018-06-08T21:38:53.078Z,21.54
2018-06-08T21:41:22.013Z,21.50
2018-06-08T21:43:50.963Z,21.52
2018-06-08T21:46:19.859Z,21.54
2018-06-08T21:48:48.783Z,21.49
2018-06-08T21:51:17.721Z,21.51
2018-06-08T21:53:46.682Z,21.50
2018-06-08T21:56:15.606Z,21.45
2018-06-08T21:58:44.713Z,21.47
2018-06-08T22:01:13.638Z,21.45
2018-06-08T22:03:42.562Z,21.47
2018-06-08T22:06:11.475Z,21.46
2018-06-08T22:08:40.466Z,21.46
2018-06-08T22:11:09.412Z,21.47
2018-06-08T22:13:38.502Z,21.47
2018-06-08T22:16:07.440Z,21.48
2018-06-08T22:18:36.407Z,21.49
2018-06-08T22:21:05.417Z,21.46
2018-06-08T22:23:34.421Z,21.43
2018-06-08T22:26:03.530Z,21.48
2018-06-08T22:28:32.415Z,21.46
2018-06-08T22:31:04.861Z,21.50
2018-06-08T22:33:33.810Z,21.44
2018-06-08T22:36:02.795Z,21.42
2018-06-08T22:38:31.728Z,21.40
2018-06-08T22:41:02.653Z,21.44
2018-06-08T22:43:31.570Z,21.35
2018-06-08T22:46:00.567Z,21.39
2018-06-08T22:48:29.455Z,21.45
2018-06-08T22:50:58.381Z,21.43
2018-06-08T22:53:27.293Z,21.42
2018-06-08T22:55:56.241Z,21.39
2018-06-08T22:58:25.207Z,21.38
2018-06-08T23:00:54.163Z,21.37
2018-06-08T23:03:23.040Z,21.37
2018-06-08T23:05:52.023Z,21.38
2018-06-08T23:08:24.751Z,21.42
2018-06-08T23:10:53.907Z,21.40
2018-06-08T23:13:22.908Z,21.39
2018-06-08T23:15:51.864Z,21.40
2018-06-08T23:18:20.800Z,21.38
2018-06-08T23:20:49.805Z,21.35
2018-06-08T23:23:18.875Z,21.38
2018-06-08T23:25:47.908Z,21.38
2018-06-08T23:28:16.830Z,21.32
2018-06-08T23:30:45.753Z,21.25
2018-06-08T23:33:14.941Z,21.20
2018-06-08T23:35:43.956Z,21.18
2018-06-08T23:38:16.435Z,21.20
2018-06-08T23:40:45.411Z,21.20
2018-06-08T23:43:14.389Z,21.15
2018-06-08T23:45:43.319Z,21.11
2018-06-08T23:48:16.079Z,21.10
2018-06-08T23:50:45.014Z,21.05
2018-06-08T23:53:13.970Z,21.12
2018-06-08T23:55:42.990Z,21.10
2018-06-08T23:58:11.989Z,21.10
